createdAt,value
2023-02-15T00:01:12.606Z,3.28
2023-02-15T00:03:17.215Z,3.27
2023-02-15T00:05:18.844Z,3.37
2023-02-15T00:07:20.704Z,3.37
2023-02-15T00:09:23.236Z,3.47
2023-02-15T00:11:51.264Z,3.57
2023-02-15T00:13:52.974Z,3.58
2023-02-15T00:15:54.587Z,3.56
2023-02-15T00:17:57.679Z,3.53
2023-02-15T00:19:59.325Z,3.50
2023-02-15T00:22:01.311Z,3.49
2023-02-15T00:24:04.520Z,3.35
2023-02-15T00:26:10.768Z,3.27
2023-02-15T00:28:12.476Z,3.32
2023-02-15T00:30:14.352Z,3.37
2023-02-15T00:32:16.034Z,3.39
2023-02-15T00:34:20.025Z,3.36
2023-02-15T00:36:21.626Z,3.45
2023-02-15T00:38:23.255Z,3.38
2023-02-15T00:40:24.864Z,3.41
2023-02-15T00:42:26.449Z,3.39
2023-02-15T00:44:28.134Z,3.33
2023-02-15T00:46:29.787Z,3.30
2023-02-15T00:48:31.523Z,3.27
2023-02-15T00:50:33.142Z,3.23
2023-02-15T00:52:34.820Z,3.22
2023-02-15T00:54:36.482Z,3.15
2023-02-15T00:56:38.193Z,3.12
2023-02-15T00:58:39.875Z,3.20
2023-02-15T01:00:42.532Z,3.23
2023-02-15T01:02:44.109Z,3.32
2023-02-15T01:04:45.736Z,3.24
2023-02-15T01:06:47.337Z,3.28
2023-02-15T01:08:49.392Z,3.34
2023-02-15T01:10:51.088Z,3.27
2023-02-15T01:12:53.839Z,3.29
2023-02-15T01:14:55.519Z,3.25
2023-02-15T01:16:57.177Z,3.29
2023-02-15T01:18:58.986Z,3.27
2023-02-15T01:21:01.372Z,3.21
2023-02-15T01:23:03.100Z,3.25
2023-02-15T01:25:05.274Z,3.33
2023-02-15T01:27:06.843Z,3.39
2023-02-15T01:29:08.558Z,3.35
2023-02-15T01:31:14.351Z,3.38
2023-02-15T01:33:19.022Z,3.35
2023-02-15T01:35:20.851Z,3.35
2023-02-15T01:37:22.401Z,3.33
2023-02-15T01:39:24.101Z,3.33
2023-02-15T01:41:27.293Z,3.36
2023-02-15T01:43:42.658Z,3.27
2023-02-15T01:45:47.448Z,3.31
2023-02-15T01:48:05.416Z,3.20
2023-02-15T01:50:34.878Z,3.25
2023-02-15T01:52:39.699Z,3.22
2023-02-15T01:54:42.172Z,3.18
2023-02-15T01:56:43.874Z,3.13
2023-02-15T01:58:46.750Z,3.05
2023-02-15T02:00:48.481Z,3.10
2023-02-15T02:02:53.351Z,3.11
2023-02-15T02:05:07.511Z,3.06
2023-02-15T02:07:11.059Z,3.07
2023-02-15T02:09:13.814Z,3.05
2023-02-15T02:11:15.778Z,3.08
2023-02-15T02:13:17.470Z,3.17
2023-02-15T02:15:19.343Z,3.16
2023-02-15T02:17:48.606Z,3.13
2023-02-15T02:20:12.154Z,3.18
2023-02-15T02:22:35.104Z,3.17
2023-02-15T02:24:58.225Z,3.21
2023-02-15T02:27:31.268Z,3.26
2023-02-15T02:29:39.051Z,3.29
2023-02-15T02:31:54.343Z,3.16
2023-02-15T02:34:11.299Z,3.15
2023-02-15T02:36:17.847Z,3.20
2023-02-15T02:38:32.473Z,3.22
2023-02-15T02:40:42.731Z,3.31
2023-02-15T02:42:59.320Z,3.34
2023-02-15T02:45:08.191Z,3.44
2023-02-15T02:47:27.740Z,3.40
2023-02-15T02:49:33.361Z,3.40
2023-02-15T02:51:35.026Z,3.34
2023-02-15T02:53:36.728Z,3.38
2023-02-15T02:55:41.334Z,3.37
2023-02-15T02:57:53.919Z,3.40
2023-02-15T02:59:57.034Z,3.37
2023-02-15T03:02:18.756Z,3.39
2023-02-15T03:04:24.718Z,3.51
2023-02-15T03:06:35.328Z,3.44
2023-02-15T03:08:59.108Z,3.42
2023-02-15T03:11:01.891Z,3.35
2023-02-15T03:13:03.724Z,3.35
2023-02-15T03:15:18.235Z,3.36
2023-02-15T03:17:22.187Z,3.33
2023-02-15T03:19:25.184Z,3.31
2023-02-15T03:21:50.551Z,3.31
2023-02-15T03:24:00.939Z,3.36
2023-02-15T03:26:04.800Z,3.35
2023-02-15T03:28:13.243Z,3.36
2023-02-15T03:30:16.675Z,3.36
2023-02-15T03:32:18.761Z,3.41
2023-02-15T03:34:20.533Z,3.43
2023-02-15T03:36:57.155Z,3.45
2023-02-15T03:39:16.332Z,3.48
2023-02-15T03:41:19.471Z,3.41
2023-02-15T03:43:38.951Z,3.36
2023-02-15T03:45:55.548Z,3.38
2023-02-15T03:47:58.081Z,3.34
2023-02-15T03:50:29.937Z,3.34
2023-02-15T03:52:33.208Z,3.39
2023-02-15T03:54:48.529Z,3.37
2023-02-15T03:57:10.440Z,3.40
2023-02-15T03:59:30.513Z,3.37
2023-02-15T04:01:57.307Z,3.37
2023-02-15T04:04:04.556Z,3.34
2023-02-15T04:06:06.557Z,3.39
2023-02-15T04:08:08.649Z,3.46
2023-02-15T04:10:29.091Z,3.31
2023-02-15T04:12:32.061Z,3.20
2023-02-15T04:14:52.356Z,3.25
2023-02-15T04:16:54.114Z,3.43
2023-02-15T04:19:14.179Z,3.43
2023-02-15T04:21:34.639Z,3.47
2023-02-15T04:23:54.617Z,3.51
2023-02-15T04:25:56.301Z,3.52
2023-02-15T04:27:57.930Z,3.37
2023-02-15T04:29:59.650Z,3.49
2023-02-15T04:32:02.669Z,3.56
2023-02-15T04:34:04.316Z,3.55
2023-02-15T04:36:06.496Z,3.52
2023-02-15T04:38:08.225Z,3.42
2023-02-15T04:40:13.344Z,3.39
2023-02-15T04:42:14.949Z,3.47
2023-02-15T04:44:16.797Z,3.47
2023-02-15T04:46:18.585Z,3.49
2023-02-15T04:48:20.308Z,3.56
2023-02-15T04:50:21.967Z,3.53
2023-02-15T04:52:23.723Z,3.51
2023-02-15T04:54:25.401Z,3.53
2023-02-15T04:56:27.137Z,3.55
2023-02-15T04:58:28.913Z,3.53
2023-02-15T05:00:30.516Z,3.55
2023-02-15T05:02:32.282Z,3.58
2023-02-15T05:04:34.039Z,3.51
2023-02-15T05:06:36.044Z,3.59
2023-02-15T05:08:37.718Z,3.57
2023-02-15T05:10:39.368Z,3.54
2023-02-15T05:12:40.981Z,3.54
2023-02-15T05:14:42.517Z,3.55
2023-02-15T05:16:44.172Z,3.51
2023-02-15T05:18:45.889Z,3.53
2023-02-15T05:20:47.765Z,3.56
2023-02-15T05:22:49.854Z,3.56
2023-02-15T05:25:10.317Z,3.57
2023-02-15T05:27:30.992Z,3.57
2023-02-15T05:29:32.620Z,3.56
2023-02-15T05:31:34.867Z,3.59
2023-02-15T05:33:36.810Z,3.58
2023-02-15T05:35:38.896Z,3.71
2023-02-15T05:37:40.557Z,3.71
2023-02-15T05:39:42.672Z,3.69
2023-02-15T05:41:45.097Z,3.72
2023-02-15T05:43:46.813Z,3.73
2023-02-15T05:45:52.748Z,3.71
2023-02-15T05:47:54.672Z,3.78
2023-02-15T05:49:56.544Z,3.82
2023-02-15T05:51:58.288Z,3.67
2023-02-15T05:53:59.984Z,3.72
2023-02-15T05:56:03.624Z,3.79
2023-02-15T05:58:05.656Z,3.84
2023-02-15T06:00:08.072Z,3.82
2023-02-15T06:02:10.008Z,3.84
2023-02-15T06:04:11.780Z,3.72
2023-02-15T06:06:13.536Z,3.82
2023-02-15T06:08:15.339Z,3.77
2023-02-15T06:10:17.072Z,3.73
2023-02-15T06:12:18.695Z,3.74
2023-02-15T06:14:20.406Z,3.64
2023-02-15T06:16:22.473Z,3.68
2023-02-15T06:18:24.174Z,3.70
2023-02-15T06:20:26.339Z,3.79
2023-02-15T06:22:27.895Z,3.84
2023-02-15T06:24:29.637Z,3.87
2023-02-15T06:26:31.290Z,3.89
2023-02-15T06:28:32.920Z,3.91
2023-02-15T06:30:34.872Z,3.84
2023-02-15T06:32:37.067Z,3.71
2023-02-15T06:34:38.672Z,3.74
2023-02-15T06:36:40.395Z,3.89
2023-02-15T06:38:42.535Z,3.97
2023-02-15T06:40:44.092Z,3.99
2023-02-15T06:42:46.067Z,4.03
2023-02-15T06:44:47.717Z,4.10
2023-02-15T06:46:49.309Z,4.13
2023-02-15T06:48:50.967Z,4.08
2023-02-15T06:50:53.401Z,4.14
2023-02-15T06:53:00.707Z,4.13
2023-02-15T06:55:02.465Z,4.06
2023-02-15T06:57:04.156Z,4.09
2023-02-15T06:59:05.820Z,4.06
2023-02-15T07:01:08.213Z,4.16
2023-02-15T07:03:10.120Z,4.19
2023-02-15T07:05:11.831Z,4.22
2023-02-15T07:07:13.688Z,4.21
2023-02-15T07:09:15.353Z,4.27
2023-02-15T07:11:35.210Z,4.37
2023-02-15T07:13:37.782Z,4.49
2023-02-15T07:15:39.579Z,4.42
2023-02-15T07:17:41.474Z,4.42
2023-02-15T07:19:43.244Z,4.39
2023-02-15T07:21:46.577Z,4.46
2023-02-15T07:23:48.802Z,4.55
2023-02-15T07:25:58.015Z,4.37
2023-02-15T07:28:03.321Z,4.42
2023-02-15T07:30:07.932Z,4.60
2023-02-15T07:32:09.869Z,4.60
2023-02-15T07:34:11.916Z,4.41
2023-02-15T07:36:13.766Z,4.34
2023-02-15T07:38:15.913Z,4.46
2023-02-15T07:40:17.579Z,4.46
2023-02-15T07:42:20.766Z,4.34
2023-02-15T07:44:22.465Z,4.42
2023-02-15T07:46:24.113Z,4.52
2023-02-15T07:48:25.715Z,4.54
2023-02-15T07:50:27.413Z,4.67
2023-02-15T07:52:29.059Z,4.65
2023-02-15T07:54:30.983Z,4.73
2023-02-15T07:56:34.712Z,4.58
2023-02-15T07:58:52.914Z,4.49
2023-02-15T08:01:02.173Z,4.54
2023-02-15T08:03:16.409Z,4.35
2023-02-15T08:05:19.320Z,4.45
2023-02-15T08:07:21.225Z,4.55
2023-02-15T08:09:23.094Z,4.48
2023-02-15T08:11:26.723Z,4.57
2023-02-15T08:13:28.444Z,4.60
2023-02-15T08:15:30.275Z,4.67
2023-02-15T08:17:31.866Z,4.45
2023-02-15T08:19:34.272Z,4.52
2023-02-15T08:21:37.941Z,4.43
2023-02-15T08:23:39.734Z,4.44
2023-02-15T08:25:41.314Z,4.47
2023-02-15T08:27:42.946Z,4.59
2023-02-15T08:29:44.742Z,4.72
2023-02-15T08:31:47.094Z,4.84
2023-02-15T08:33:50.269Z,4.89
2023-02-15T08:35:51.821Z,4.86
2023-02-15T08:37:53.756Z,4.76
2023-02-15T08:39:55.497Z,4.82
2023-02-15T08:41:57.127Z,4.64
2023-02-15T08:44:01.124Z,4.03
2023-02-15T08:46:02.963Z,3.92
2023-02-15T08:48:04.724Z,3.83
2023-02-15T08:50:06.756Z,4.05
2023-02-15T08:52:08.457Z,4.17
2023-02-15T08:54:13.380Z,4.47
2023-02-15T08:56:14.964Z,4.59
2023-02-15T08:58:16.693Z,4.77
2023-02-15T09:00:18.886Z,4.82
2023-02-15T09:02:20.508Z,4.70
2023-02-15T09:04:23.706Z,4.69
2023-02-15T09:06:26.319Z,4.62
2023-02-15T09:08:29.096Z,4.68
2023-02-15T09:10:30.756Z,4.55
2023-02-15T09:12:32.407Z,4.70
2023-02-15T09:14:34.482Z,4.83
2023-02-15T09:16:38.028Z,5.01
2023-02-15T09:18:40.694Z,4.97
2023-02-15T09:20:42.302Z,4.97
2023-02-15T09:22:44.064Z,5.04
2023-02-15T09:24:45.786Z,5.07
2023-02-15T09:26:48.772Z,4.96
2023-02-15T09:28:54.120Z,4.94
2023-02-15T09:30:56.593Z,5.04
2023-02-15T09:32:58.297Z,5.04
2023-02-15T09:35:00.005Z,4.96
2023-02-15T09:37:01.670Z,5.07
2023-02-15T09:39:13.925Z,5.12
2023-02-15T09:41:30.742Z,5.04
2023-02-15T09:43:42.924Z,4.87
2023-02-15T09:46:13.695Z,4.87
2023-02-15T09:48:22.066Z,4.92
2023-02-15T09:50:29.303Z,4.72
2023-02-15T09:52:58.838Z,4.68
2023-02-15T09:55:29.692Z,4.89
2023-02-15T09:57:41.205Z,4.96
2023-02-15T10:00:05.221Z,5.00
2023-02-15T10:02:25.587Z,5.17
2023-02-15T10:04:34.210Z,5.36
2023-02-15T10:06:42.929Z,5.36
2023-02-15T10:09:12.399Z,5.29
2023-02-15T10:11:41.123Z,5.49
2023-02-15T10:13:49.561Z,5.36
2023-02-15T10:16:09.886Z,5.33
2023-02-15T10:18:21.030Z,5.46
2023-02-15T10:20:50.695Z,5.26
2023-02-15T10:22:58.409Z,5.18
2023-02-15T10:25:13.282Z,5.25
2023-02-15T10:27:20.544Z,5.31
2023-02-15T10:29:37.800Z,5.38
2023-02-15T10:31:52.038Z,5.21
2023-02-15T10:34:17.155Z,5.33
2023-02-15T10:36:38.687Z,5.39
2023-02-15T10:38:58.212Z,5.48
2023-02-15T10:41:33.522Z,5.42
2023-02-15T10:43:50.606Z,5.49
2023-02-15T10:46:24.992Z,5.63
2023-02-15T10:48:56.829Z,5.95
2023-02-15T10:51:00.972Z,5.90
2023-02-15T10:53:08.675Z,5.93
2023-02-15T10:55:20.333Z,5.67
2023-02-15T10:57:21.847Z,5.56
2023-02-15T10:59:49.946Z,5.40
2023-02-15T11:02:15.978Z,5.45
2023-02-15T11:04:17.688Z,5.48
2023-02-15T11:06:20.955Z,5.59
2023-02-15T11:08:25.830Z,5.69
2023-02-15T11:10:38.939Z,5.80
2023-02-15T11:12:43.389Z,5.99
2023-02-15T11:14:49.276Z,5.91
2023-02-15T11:16:54.332Z,6.09
2023-02-15T11:19:00.011Z,5.96
2023-02-15T11:21:23.195Z,6.25
2023-02-15T11:23:26.453Z,6.59
2023-02-15T11:25:36.038Z,6.63
2023-02-15T11:27:37.908Z,6.87
2023-02-15T11:29:51.523Z,6.77
2023-02-15T11:31:58.792Z,6.79
2023-02-15T11:34:06.075Z,6.96
2023-02-15T11:36:18.278Z,7.15
2023-02-15T11:38:25.325Z,7.29
2023-02-15T11:40:31.808Z,7.39
2023-02-15T11:42:34.203Z,7.36
2023-02-15T11:44:38.706Z,7.17
2023-02-15T11:46:40.411Z,6.80
2023-02-15T11:48:43.298Z,6.84
2023-02-15T11:50:45.630Z,7.04
2023-02-15T11:52:47.524Z,6.46
2023-02-15T11:54:51.504Z,6.07
2023-02-15T11:56:53.231Z,6.10
2023-02-15T11:59:05.529Z,6.04
2023-02-15T12:01:33.314Z,6.21
2023-02-15T12:03:41.534Z,6.10
2023-02-15T12:05:45.977Z,5.31
2023-02-15T12:07:50.203Z,5.32
2023-02-15T12:10:19.700Z,5.07
2023-02-15T12:12:31.609Z,4.60
2023-02-15T12:14:49.302Z,4.36
2023-02-15T12:16:52.785Z,4.65
2023-02-15T12:18:56.576Z,5.17
2023-02-15T12:21:14.611Z,5.58
2023-02-15T12:23:16.875Z,5.42
2023-02-15T12:25:37.328Z,5.01
2023-02-15T12:27:44.304Z,4.77
2023-02-15T12:29:57.816Z,5.17
2023-02-15T12:32:00.390Z,5.41
2023-02-15T12:34:04.684Z,5.15
2023-02-15T12:36:16.878Z,5.21
2023-02-15T12:38:18.432Z,5.42
2023-02-15T12:40:23.745Z,5.22
2023-02-15T12:42:26.563Z,5.05
2023-02-15T12:44:30.633Z,4.81
2023-02-15T12:46:37.963Z,5.10
2023-02-15T12:48:40.629Z,4.80
2023-02-15T12:50:47.438Z,4.89
2023-02-15T12:52:51.562Z,5.22
2023-02-15T12:54:53.403Z,5.10
2023-02-15T12:56:55.170Z,5.20
2023-02-15T12:59:06.141Z,5.19
2023-02-15T13:01:13.052Z,5.12
2023-02-15T13:03:19.942Z,5.21
2023-02-15T13:05:49.917Z,5.49
2023-02-15T13:07:55.025Z,5.26
2023-02-15T13:09:56.689Z,5.23
2023-02-15T13:12:19.070Z,5.40
2023-02-15T13:14:22.945Z,5.50
2023-02-15T13:16:31.024Z,5.32
2023-02-15T13:18:35.939Z,5.43
2023-02-15T13:20:38.672Z,5.67
2023-02-15T13:22:44.113Z,5.97
2023-02-15T13:24:51.635Z,6.04
2023-02-15T13:27:09.389Z,5.71
2023-02-15T13:29:27.646Z,5.61
2023-02-15T13:31:33.285Z,5.64
2023-02-15T13:33:37.528Z,5.70
2023-02-15T13:35:46.152Z,5.52
2023-02-15T13:38:08.097Z,5.91
2023-02-15T13:40:17.124Z,6.01
2023-02-15T13:42:32.243Z,5.95
2023-02-15T13:44:43.279Z,5.70
2023-02-15T13:47:12.904Z,5.24
2023-02-15T13:49:22.660Z,5.19
2023-02-15T13:51:40.091Z,5.14
2023-02-15T13:53:59.563Z,5.32
2023-02-15T13:56:19.286Z,5.61
2023-02-15T13:58:29.679Z,5.84
2023-02-15T14:01:12.818Z,5.81
2023-02-15T14:03:46.898Z,6.07
2023-02-15T14:05:54.394Z,5.77
2023-02-15T14:08:16.644Z,5.92
2023-02-15T14:10:30.997Z,5.59
2023-02-15T14:12:32.460Z,5.23
2023-02-15T14:14:58.930Z,5.10
2023-02-15T14:17:38.773Z,5.01
2023-02-15T14:19:54.994Z,5.24
2023-02-15T14:22:14.908Z,5.34
2023-02-15T14:24:28.471Z,5.64
2023-02-15T14:26:54.269Z,5.63
2023-02-15T14:29:03.868Z,5.80
2023-02-15T14:31:08.632Z,5.76
2023-02-15T14:33:28.790Z,5.78
2023-02-15T14:35:31.476Z,5.20
2023-02-15T14:38:06.383Z,5.23
2023-02-15T14:40:38.233Z,5.36
2023-02-15T14:42:57.978Z,5.44
2023-02-15T14:45:20.802Z,5.29
2023-02-15T14:47:46.370Z,5.43
2023-02-15T14:49:48.048Z,5.48
2023-02-15T14:51:50.729Z,5.39
2023-02-15T14:53:52.312Z,5.03
2023-02-15T14:56:12.063Z,4.91
2023-02-15T14:58:14.529Z,4.95
2023-02-15T15:00:51.731Z,4.76
2023-02-15T15:02:53.938Z,5.04
2023-02-15T15:05:09.586Z,5.44
2023-02-15T15:07:40.232Z,5.63
2023-02-15T15:09:42.980Z,5.33
2023-02-15T15:11:47.434Z,4.92
2023-02-15T15:14:00.162Z,4.99
2023-02-15T15:16:26.642Z,4.99
2023-02-15T15:18:48.420Z,5.22
2023-02-15T15:20:52.044Z,5.40
2023-02-15T15:23:15.617Z,5.36
2023-02-15T15:25:39.772Z,5.19
2023-02-15T15:27:52.501Z,5.12
2023-02-15T15:29:54.119Z,5.29
2023-02-15T15:31:57.262Z,5.31
2023-02-15T15:34:04.814Z,5.46
2023-02-15T15:36:22.172Z,5.45
2023-02-15T15:38:23.789Z,5.42
2023-02-15T15:40:49.785Z,5.31
2023-02-15T15:43:02.072Z,5.32
2023-02-15T15:45:34.149Z,5.38
2023-02-15T15:47:42.243Z,5.27
2023-02-15T15:49:44.147Z,5.19
2023-02-15T15:51:46.811Z,5.23
2023-02-15T15:53:52.223Z,5.34
2023-02-15T15:55:59.777Z,5.44
2023-02-15T15:58:06.273Z,5.33
2023-02-15T16:00:32.240Z,5.39
2023-02-15T16:02:33.960Z,5.42
2023-02-15T16:04:36.514Z,5.34
2023-02-15T16:06:39.843Z,5.34
2023-02-15T16:08:41.653Z,5.39
2023-02-15T16:10:43.226Z,5.44
2023-02-15T16:12:48.025Z,5.46
2023-02-15T16:14:52.759Z,5.43
2023-02-15T16:16:57.572Z,5.38
2023-02-15T16:19:00.662Z,5.39
2023-02-15T16:21:02.911Z,5.26
2023-02-15T16:23:29.315Z,5.25
2023-02-15T16:25:50.059Z,5.27
2023-02-15T16:27:52.676Z,5.16
2023-02-15T16:29:54.394Z,5.20
2023-02-15T16:32:04.809Z,5.26
2023-02-15T16:34:11.531Z,5.27
2023-02-15T16:36:24.843Z,5.20
2023-02-15T16:38:44.793Z,5.11
2023-02-15T16:40:54.795Z,5.15
2023-02-15T16:43:01.052Z,5.02
2023-02-15T16:45:13.444Z,5.01
2023-02-15T16:47:19.372Z,4.88
2023-02-15T16:49:23.503Z,4.86
2023-02-15T16:51:28.657Z,4.87
2023-02-15T16:53:30.546Z,4.92
2023-02-15T16:55:36.934Z,4.99
2023-02-15T16:57:39.276Z,5.01
2023-02-15T16:59:46.076Z,4.97
2023-02-15T17:01:47.849Z,5.00
2023-02-15T17:03:50.438Z,5.02
2023-02-15T17:05:54.783Z,4.98
2023-02-15T17:08:20.939Z,5.05
2023-02-15T17:10:37.440Z,5.01
2023-02-15T17:12:48.588Z,5.02
2023-02-15T17:14:55.710Z,5.04
2023-02-15T17:17:08.278Z,5.07
2023-02-15T17:19:15.092Z,5.12
2023-02-15T17:21:21.915Z,5.07
2023-02-15T17:23:33.155Z,5.09
2023-02-15T17:25:40.389Z,5.00
2023-02-15T17:27:42.050Z,4.83
2023-02-15T17:30:01.746Z,4.84
2023-02-15T17:32:04.865Z,4.86
2023-02-15T17:34:06.867Z,4.80
2023-02-15T17:36:23.516Z,4.76
2023-02-15T17:38:25.173Z,4.61
2023-02-15T17:40:37.002Z,4.60
2023-02-15T17:42:38.721Z,4.54
2023-02-15T17:44:40.377Z,4.59
2023-02-15T17:46:42.582Z,4.56
2023-02-15T17:48:44.146Z,4.66
2023-02-15T17:50:45.868Z,4.69
2023-02-15T17:52:47.776Z,4.66
2023-02-15T17:55:15.537Z,4.65
2023-02-15T17:57:17.227Z,4.57
2023-02-15T17:59:18.991Z,4.56
2023-02-15T18:01:39.974Z,4.47
2023-02-15T18:04:06.460Z,4.53
2023-02-15T18:06:26.952Z,4.46
2023-02-15T18:08:47.091Z,4.30
2023-02-15T18:11:07.433Z,4.15
2023-02-15T18:13:09.099Z,3.96
2023-02-15T18:15:13.631Z,4.01
2023-02-15T18:17:16.994Z,3.86
2023-02-15T18:19:23.174Z,3.72
2023-02-15T18:21:25.257Z,3.83
2023-02-15T18:23:26.999Z,3.81
2023-02-15T18:25:28.606Z,3.69
2023-02-15T18:27:30.299Z,3.68
2023-02-15T18:29:32.281Z,3.67
2023-02-15T18:31:33.918Z,3.76
2023-02-15T18:33:38.816Z,3.81
2023-02-15T18:35:40.399Z,3.80
2023-02-15T18:37:42.054Z,3.83
2023-02-15T18:39:46.909Z,3.95
2023-02-15T18:41:48.564Z,4.05
2023-02-15T18:43:51.010Z,4.07
2023-02-15T18:45:52.699Z,3.99
2023-02-15T18:47:55.187Z,4.02
2023-02-15T18:49:57.032Z,4.03
2023-02-15T18:51:58.756Z,4.01
2023-02-15T18:54:00.582Z,3.99
2023-02-15T18:56:02.213Z,4.14
2023-02-15T18:58:04.123Z,4.19
2023-02-15T19:00:10.801Z,4.24
2023-02-15T19:02:17.689Z,4.23
2023-02-15T19:04:19.586Z,4.22
2023-02-15T19:06:23.191Z,4.29
2023-02-15T19:08:25.103Z,4.39
2023-02-15T19:10:28.853Z,4.35
2023-02-15T19:12:30.580Z,4.41
2023-02-15T19:14:33.369Z,4.49
2023-02-15T19:16:36.008Z,4.47
2023-02-15T19:18:37.717Z,4.49
2023-02-15T19:20:42.329Z,4.59
2023-02-15T19:22:44.452Z,4.45
2023-02-15T19:24:47.268Z,4.39
2023-02-15T19:26:49.608Z,4.48
2023-02-15T19:28:51.741Z,4.51
2023-02-15T19:30:53.421Z,4.55
2023-02-15T19:32:55.079Z,4.64
2023-02-15T19:34:57.625Z,4.60
2023-02-15T19:36:59.359Z,4.64
2023-02-15T19:39:00.969Z,4.53
2023-02-15T19:41:06.827Z,4.56
2023-02-15T19:43:17.685Z,4.68
2023-02-15T19:45:24.687Z,4.71
2023-02-15T19:47:28.243Z,4.70
2023-02-15T19:49:30.187Z,4.52
2023-02-15T19:51:31.829Z,4.54
2023-02-15T19:53:33.383Z,4.45
2023-02-15T19:55:35.490Z,4.49
2023-02-15T19:57:37.115Z,4.50
2023-02-15T19:59:38.742Z,4.21
2023-02-15T20:01:40.801Z,4.17
2023-02-15T20:03:42.571Z,4.24
2023-02-15T20:05:44.874Z,4.12
2023-02-15T20:07:48.574Z,3.90
2023-02-15T20:09:50.176Z,3.96
2023-02-15T20:11:55.310Z,4.09
2023-02-15T20:13:56.865Z,4.16
2023-02-15T20:16:01.233Z,4.12
2023-02-15T20:18:04.199Z,4.10
2023-02-15T20:20:06.454Z,4.12
2023-02-15T20:22:27.466Z,4.16
2023-02-15T20:24:30.183Z,3.87
2023-02-15T20:26:33.092Z,3.94
2023-02-15T20:28:34.770Z,3.98
2023-02-15T20:30:36.498Z,4.12
2023-02-15T20:32:38.202Z,4.21
2023-02-15T20:34:39.858Z,3.96
2023-02-15T20:36:41.840Z,4.04
2023-02-15T20:38:44.143Z,4.12
2023-02-15T20:41:05.804Z,4.17
2023-02-15T20:43:13.864Z,4.29
2023-02-15T20:45:23.877Z,4.18
2023-02-15T20:47:27.571Z,4.19
2023-02-15T20:49:29.703Z,4.17
2023-02-15T20:51:31.468Z,4.26
2023-02-15T20:53:33.150Z,4.25
2023-02-15T20:55:34.836Z,4.27
2023-02-15T20:57:36.386Z,4.31
2023-02-15T20:59:38.140Z,4.18
2023-02-15T21:01:40.302Z,4.22
2023-02-15T21:03:42.119Z,4.35
2023-02-15T21:05:45.640Z,4.43
2023-02-15T21:07:48.684Z,4.48
2023-02-15T21:09:51.040Z,4.44
2023-02-15T21:11:55.051Z,4.48
2023-02-15T21:13:56.634Z,4.37
2023-02-15T21:15:58.427Z,4.33
2023-02-15T21:18:05.193Z,4.22
2023-02-15T21:20:09.563Z,4.03
2023-02-15T21:22:13.110Z,3.80
2023-02-15T21:24:16.428Z,3.65
2023-02-15T21:26:21.435Z,3.59
2023-02-15T21:28:26.204Z,3.40
2023-02-15T21:30:28.280Z,3.37
2023-02-15T21:32:30.088Z,3.46
2023-02-15T21:34:31.710Z,3.55
2023-02-15T21:36:33.473Z,3.61
2023-02-15T21:38:35.380Z,3.59
2023-02-15T21:40:36.974Z,3.63
2023-02-15T21:42:57.218Z,3.61
2023-02-15T21:45:17.374Z,3.53
2023-02-15T21:47:46.121Z,3.51
2023-02-15T21:49:47.719Z,3.53
2023-02-15T21:52:09.570Z,3.53
2023-02-15T21:54:13.171Z,3.56
2023-02-15T21:56:20.451Z,3.47
2023-02-15T21:58:27.220Z,3.38
2023-02-15T22:00:29.504Z,3.20
2023-02-15T22:02:31.414Z,3.04
2023-02-15T22:04:33.185Z,2.93
2023-02-15T22:06:34.800Z,2.84
2023-02-15T22:08:37.033Z,2.74
2023-02-15T22:10:39.624Z,2.69
2023-02-15T22:12:42.828Z,2.49
2023-02-15T22:14:46.176Z,2.37
2023-02-15T22:16:47.736Z,2.26
2023-02-15T22:18:49.548Z,2.15
2023-02-15T22:20:51.819Z,2.03
2023-02-15T22:22:53.531Z,2.05
2023-02-15T22:24:55.186Z,2.24
2023-02-15T22:26:56.817Z,2.36
2023-02-15T22:28:58.537Z,2.47
2023-02-15T22:31:01.011Z,2.54
2023-02-15T22:33:03.101Z,2.59
2023-02-15T22:35:06.970Z,2.69
2023-02-15T22:37:08.482Z,2.79
2023-02-15T22:39:10.274Z,2.89
2023-02-15T22:41:11.908Z,2.87
2023-02-15T22:43:39.528Z,2.86
2023-02-15T22:45:41.369Z,2.88
2023-02-15T22:47:43.000Z,2.90
2023-02-15T22:49:44.625Z,2.90
2023-02-15T22:51:49.902Z,2.98
2023-02-15T22:53:54.082Z,3.01
2023-02-15T22:55:56.077Z,3.05
2023-02-15T22:57:58.001Z,3.07
2023-02-15T23:00:01.155Z,3.06
2023-02-15T23:02:03.523Z,3.04
2023-02-15T23:04:05.413Z,3.07
2023-02-15T23:06:07.150Z,3.12
2023-02-15T23:08:10.797Z,3.04
2023-02-15T23:10:21.264Z,2.93
2023-02-15T23:12:50.547Z,2.78
2023-02-15T23:14:53.152Z,2.64
2023-02-15T23:16:54.894Z,2.77
2023-02-15T23:18:56.537Z,2.86
2023-02-15T23:21:01.092Z,2.92
2023-02-15T23:23:02.762Z,3.03
2023-02-15T23:25:05.801Z,2.82
2023-02-15T23:27:25.984Z,2.61
2023-02-15T23:29:28.111Z,2.48
2023-02-15T23:31:32.443Z,2.48
2023-02-15T23:33:35.046Z,2.53
2023-02-15T23:35:36.629Z,2.64
2023-02-15T23:37:38.240Z,2.60
2023-02-15T23:39:58.468Z,2.54
2023-02-15T23:56:59.382Z,2.60
2023-02-15T23:59:01.107Z,2.52
